Time,TemperatureF,DewpointF,PressureIn,WindDirection,WindDirectionDegrees,WindSpeedMPH,WindSpeedGustMPH,Humidity,HourlyPrecipIn,Conditions,Clouds,dailyrainin,SoftwareType,DateUTC
2013-04-17 00:02:00,49.3,24.7,29.95,WSW,257,12.7,12.7,38,0.00,CLR,,0.00,WeatherDisplay:10.37,2013-04-17 07:02:00,
2013-04-17 00:07:00,49.3,25.4,29.95,West,281,11.5,11.5,39,0.00,CLR,,0.00,WeatherDisplay:10.37,2013-04-17 07:07:00,
2013-04-17 00:12:00,49.5,25.5,29.95,West,279,21.9,21.9,39,0.00,CLR,,0.00,WeatherDisplay:10.37,2013-04-17 07:12:00,
2013-04-17 00:17:00,49.4,25.4,29.96,NW,313,9.2,9.2,39,0.00,CLR,,0.00,WeatherDisplay:10.37,2013-04-17 07:17:00,
2013-04-17 00:22:00,49.4,25.4,29.96,West,279,5.8,5.8,39,0.00,CLR,,0.00,WeatherDisplay:10.37,2013-04-17 07:22:00,
2013-04-17 00:27:00,49.4,25.4,29.96,SSW,212,8.1,8.1,39,0.00,CLR,,0.00,WeatherDisplay:10.37,2013-04-17 07:27:00,
2013-04-17 00:33:00,49.4,25.4,29.96,SSW,197,11.5,11.5,39,0.00,CLR,,0.00,WeatherDisplay:10.37,2013-04-17 07:33:00,
2013-04-17 00:38:00,49.4,25.4,29.96,South,176,9.2,9.2,39,0.00,CLR,,0.00,WeatherDisplay:10.37,2013-04-17 07:38:00,
2013-04-17 00:43:00,48.8,25.5,29.96,West,261,8.1,8.1,40,0.00,CLR,,0.00,WeatherDisplay:10.37,2013-04-17 07:43:00,
2013-04-17 00:48:00,48.4,25.2,29.97,WSW,247,5.0,12.0,40,0.00,CLR,,0.00,WeatherDisplay:10.37,2013-04-17 07:48:00,
2013-04-17 00:53:00,49.1,25.8,29.97,WSW,255,6.0,12.0,40,0.00,CLR,,0.00,WeatherDisplay:10.37,2013-04-17 07:53:00,
2013-04-17 00:58:00,49.0,25.1,29.97,SW,219,5.0,5.0,39,0.00,CLR,,0.00,WeatherDisplay:10.37,2013-04-17 07:58:00,
2013-04-17 01:03:00,48.6,24.7,29.98,North,355,3.5,3.5,39,0.00,OVC,,0.00,WeatherDisplay:10.37,2013-04-17 08:03:00,
2013-04-17 01:09:00,48.1,24.3,29.97,NNE,32,6.0,6.0,39,0.00,OVC,,0.00,WeatherDisplay:10.37,2013-04-17 08:09:00,
2013-04-17 01:14:00,48.2,25.0,29.98,WNW,303,3.5,3.5,40,0.00,OVC,,0.00,WeatherDisplay:10.37,2013-04-17 08:14:00,
2013-04-17 01:19:00,48.5,24.6,29.98,North,349,6.9,6.9,39,0.00,OVC,,0.00,WeatherDisplay:10.37,2013-04-17 08:19:00,
2013-04-17 01:24:00,47.5,24.3,29.98,NE,48,6.0,6.0,40,0.00,OVC,,0.00,WeatherDisplay:10.37,2013-04-17 08:24:00,
2013-04-17 01:29:00,46.6,25.3,29.98,NE,45,11.5,11.5,43,0.00,OVC,,0.00,WeatherDisplay:10.37,2013-04-17 08:29:00,
2013-04-17 01:34:00,46.7,24.8,29.98,North,5,5.8,5.8,42,0.00,OVC,,0.00,WeatherDisplay:10.37,2013-04-17 08:34:00,
2013-04-17 01:39:00,45.8,24.5,29.98,NW,305,4.6,4.6,43,0.00,OVC,,0.00,WeatherDisplay:10.37,2013-04-17 08:39:00,
2013-04-17 01:44:00,45.6,24.4,29.99,WNW,297,8.1,8.1,43,0.00,OVC,,0.00,WeatherDisplay:10.37,2013-04-17 08:44:00,
2013-04-17 01:50:00,46.3,25.6,29.98,NW,321,10.0,10.0,44,0.00,OVC,,0.00,WeatherDisplay:10.37,2013-04-17 08:50:00,
2013-04-17 01:55:00,47.5,25.5,29.98,NW,311,11.5,11.5,42,0.00,OVC,,0.00,WeatherDisplay:10.37,2013-04-17 08:55:00,
2013-04-17 02:00:00,47.5,24.9,29.98,WNW,295,7.0,7.0,41,0.00,OVC,,0.00,WeatherDisplay:10.37,2013-04-17 09:00:00,
2013-04-17 02:05:00,47.8,24.0,29.98,WNW,303,10.4,10.4,39,0.00,OVC,,0.00,WeatherDisplay:10.37,2013-04-17 09:05:00,
2013-04-17 02:10:00,48.6,24.1,29.98,WNW,296,13.8,13.8,38,0.00,OVC,,0.00,WeatherDisplay:10.37,2013-04-17 09:10:00,
2013-04-17 02:15:00,48.4,24.6,29.98,WNW,293,10.4,10.4,39,0.00,,,0.00,WeatherDisplay:10.37,2013-04-17 09:15:00,
2013-04-17 02:20:00,48.2,24.4,29.98,WNW,289,11.5,11.5,39,0.00,OVC,,0.00,WeatherDisplay:10.37,2013-04-17 09:20:00,
2013-04-17 02:25:00,48.5,25.2,29.98,WNW,289,9.2,9.2,40,0.00,OVC,,0.00,WeatherDisplay:10.37,2013-04-17 09:25:00,
2013-04-17 02:30:00,48.2,25.0,29.98,West,266,5.8,5.8,40,0.00,OVC,,0.00,WeatherDisplay:10.37,2013-04-17 09:30:00,
2013-04-17 02:36:00,46.2,23.8,29.99,SSW,197,10.0,10.0,41,0.00,OVC,,0.00,WeatherDisplay:10.37,2013-04-17 09:36:00,
2013-04-17 02:41:00,45.6,24.4,29.99,WSW,238,7.0,7.0,43,0.00,OVC,,0.00,WeatherDisplay:10.37,2013-04-17 09:41:00,
2013-04-17 02:47:00,45.6,25.5,29.98,SW,224,11.0,11.0,45,0.00,OVC,,0.00,WeatherDisplay:10.37,2013-04-17 09:47:00,
2013-04-17 02:52:00,44.0,23.5,29.98,SW,229,13.0,13.0,44,0.00,OVC,,0.00,WeatherDisplay:10.37,2013-04-17 09:52:00,
2013-04-17 02:57:00,45.0,24.9,29.99,SW,220,13.0,13.0,45,0.00,OVC,,0.00,WeatherDisplay:10.37,2013-04-17 09:57:00,
2013-04-17 03:02:00,42.6,24.3,29.99,SW,236,16.1,16.1,48,0.00,OVC,,0.00,WeatherDisplay:10.37,2013-04-17 10:02:00,
2013-04-17 03:07:00,43.6,24.7,29.98,WSW,237,15.0,15.0,47,0.00,OVC,,0.00,WeatherDisplay:10.37,2013-04-17 10:07:00,
2013-04-17 03:12:00,42.5,24.7,29.98,SW,219,16.1,16.1,49,0.00,OVC,,0.00,WeatherDisplay:10.37,2013-04-17 10:12:00,
2013-04-17 03:17:00,42.1,24.8,29.99,SW,215,16.1,16.1,50,0.00,OVC,,0.00,WeatherDisplay:10.37,2013-04-17 10:17:00,
2013-04-17 03:22:00,41.7,25.4,29.99,SW,219,15.0,15.0,52,0.00,CLR,,0.00,WeatherDisplay:10.37,2013-04-17 10:22:00,
2013-04-17 03:28:00,41.7,25.4,29.99,SW,225,16.1,16.1,52,0.00,OVC,,0.00,WeatherDisplay:10.37,2013-04-17 10:28:00,
2013-04-17 03:33:00,41.4,25.1,29.99,SW,234,13.0,13.0,52,0.00,OVC,,0.00,WeatherDisplay:10.37,2013-04-17 10:33:00,
2013-04-17 03:38:00,41.5,24.7,29.99,SW,233,13.0,15.0,51,0.00,CLR,,0.00,WeatherDisplay:10.37,2013-04-17 10:38:00,
2013-04-17 03:43:00,40.9,24.6,29.99,SW,236,13.0,14.0,52,0.00,CLR,,0.00,WeatherDisplay:10.37,2013-04-17 10:43:00,
2013-04-17 03:48:00,40.5,24.2,29.99,WSW,237,12.0,13.0,52,0.00,CLR,,0.00,WeatherDisplay:10.37,2013-04-17 10:48:00,
2013-04-17 03:53:00,40.1,23.4,29.99,SW,233,12.0,14.0,51,0.00,CLR,,0.00,WeatherDisplay:10.37,2013-04-17 10:53:00,
2013-04-17 03:58:00,39.3,23.1,29.99,WSW,242,10.4,10.4,52,0.00,OVC,,0.00,WeatherDisplay:10.37,2013-04-17 10:58:00,
2013-04-17 04:03:00,39.4,22.8,29.99,SW,232,10.4,10.4,51,0.00,OVC,,0.00,WeatherDisplay:10.37,2013-04-17 11:03:00,
2013-04-17 04:09:00,39.4,22.8,30.00,SW,223,10.4,10.4,51,0.00,OVC,,0.00,WeatherDisplay:10.37,2013-04-17 11:09:00,
2013-04-17 04:14:00,38.8,22.2,30.00,SW,217,8.1,8.1,51,0.00,OVC,,0.00,WeatherDisplay:10.37,2013-04-17 11:14:00,
2013-04-17 04:19:00,37.9,21.8,30.00,SW,235,7.0,7.0,52,0.00,OVC,,0.00,WeatherDisplay:10.37,2013-04-17 11:19:00,
2013-04-17 04:24:00,38.7,23.0,30.00,WSW,241,8.1,8.1,53,0.00,OVC,,0.00,WeatherDisplay:10.37,2013-04-17 11:24:00,
2013-04-17 04:29:00,39.0,22.8,30.00,SW,236,7.0,7.0,52,0.00,OVC,,0.00,WeatherDisplay:10.37,2013-04-17 11:29:00,
2013-04-17 04:34:00,38.8,22.7,30.00,SW,225,8.0,8.0,52,0.00,OVC,,0.00,WeatherDisplay:10.37,2013-04-17 11:34:00,
2013-04-17 04:40:00,38.1,22.0,30.01,SSW,210,8.1,8.1,52,0.00,OVC,,0.00,WeatherDisplay:10.37,2013-04-17 11:40:00,
2013-04-17 04:45:00,37.9,22.3,30.01,SW,219,8.1,8.1,53,0.00,OVC,,0.00,WeatherDisplay:10.37,2013-04-17 11:45:00,
2013-04-17 04:50:00,38.6,22.9,30.00,SW,234,6.0,6.0,53,0.00,OVC,,0.00,WeatherDisplay:10.37,2013-04-17 11:50:00,
2013-04-17 04:55:00,38.6,22.5,30.01,SW,234,4.0,4.0,52,0.00,CLR,,0.00,WeatherDisplay:10.37,2013-04-17 11:55:00,
2013-04-17 05:00:00,37.9,21.8,30.01,SW,234,4.0,4.0,52,0.00,OVC,,0.00,WeatherDisplay:10.37,2013-04-17 12:00:00,
2013-04-17 05:05:00,37.9,22.7,30.00,WSW,239,4.0,4.0,54,0.00,OVC,,0.00,WeatherDisplay:10.37,2013-04-17 12:05:00,
2013-04-17 05:10:00,37.1,22.0,30.01,WSW,239,3.5,3.5,54,0.00,OVC,,0.00,WeatherDisplay:10.37,2013-04-17 12:10:00,
2013-04-17 05:16:00,36.8,22.6,30.01,WSW,239,3.5,3.5,56,0.00,OVC,,0.00,WeatherDisplay:10.37,2013-04-17 12:16:00,
2013-04-17 05:21:00,37.1,22.8,30.00,SSW,209,5.0,5.0,56,0.00,OVC,,0.00,WeatherDisplay:10.37,2013-04-17 12:21:00,
2013-04-17 05:26:00,37.5,22.8,30.01,SW,226,5.8,5.8,55,0.00,OVC,,0.00,WeatherDisplay:10.37,2013-04-17 12:26:00,
2013-04-17 05:31:00,37.3,22.6,30.01,SW,217,6.0,6.0,55,0.00,OVC,,0.00,WeatherDisplay:10.37,2013-04-17 12:31:00,
2013-04-17 05:36:00,38.6,23.4,30.01,SW,230,5.8,5.8,54,0.00,OVC,,0.00,WeatherDisplay:10.37,2013-04-17 12:36:00,
2013-04-17 05:41:00,38.2,22.6,30.01,West,277,4.6,4.6,53,0.00,OVC,,0.00,WeatherDisplay:10.37,2013-04-17 12:41:00,
2013-04-17 05:46:00,38.2,22.6,30.01,SW,226,5.0,5.0,53,0.00,OVC,,0.00,WeatherDisplay:10.37,2013-04-17 12:46:00,
2013-04-17 05:51:00,37.9,22.3,30.02,WSW,252,4.6,4.6,53,0.00,OVC,,0.00,WeatherDisplay:10.37,2013-04-17 12:51:00,
2013-04-17 05:56:00,37.0,21.4,30.02,West,272,4.0,4.0,53,0.00,OVC,,0.00,WeatherDisplay:10.37,2013-04-17 12:56:00,
2013-04-17 06:02:00,37.5,22.3,30.02,West,272,4.0,4.0,54,0.00,OVC,,0.00,WeatherDisplay:10.37,2013-04-17 13:02:00,
2013-04-17 06:07:00,38.1,22.5,30.02,West,272,4.6,4.6,53,0.00,OVC,,0.00,WeatherDisplay:10.37,2013-04-17 13:07:00,
2013-04-17 06:12:00,38.0,22.4,30.02,West,272,4.0,4.0,53,0.00,OVC,,0.00,WeatherDisplay:10.37,2013-04-17 13:12:00,
2013-04-17 06:17:00,38.2,22.6,30.03,WNW,285,4.0,4.0,53,0.00,OVC,,0.00,WeatherDisplay:10.37,2013-04-17 13:17:00,
2013-04-17 06:22:00,38.7,22.6,30.03,West,265,3.5,3.7,52,0.00,OVC,,0.00,WeatherDisplay:10.37,2013-04-17 13:22:00,
2013-04-17 06:27:00,39.1,22.5,30.04,SW,231,5.0,5.0,51,0.00,OVC,,0.00,WeatherDisplay:10.37,2013-04-17 13:27:00,
2013-04-17 06:33:00,39.2,22.6,30.03,WSW,242,5.0,5.0,51,0.00,OVC,,0.00,WeatherDisplay:10.37,2013-04-17 13:33:00,
2013-04-17 06:38:00,39.2,22.6,30.04,WSW,248,5.8,5.8,51,0.00,OVC,,0.00,WeatherDisplay:10.37,2013-04-17 13:38:00,
2013-04-17 06:43:00,39.5,22.3,30.04,WSW,241,5.0,5.0,50,0.00,CLR,,0.00,WeatherDisplay:10.37,2013-04-17 13:43:00,
2013-04-17 06:48:00,39.7,22.6,30.04,SW,233,5.8,5.8,50,0.00,OVC,,0.00,WeatherDisplay:10.37,2013-04-17 13:48:00,
2013-04-17 06:53:00,39.7,22.6,30.05,WSW,248,4.0,4.0,50,0.00,OVC,,0.00,WeatherDisplay:10.37,2013-04-17 13:53:00,
2013-04-17 06:59:00,39.8,22.7,30.05,SW,232,4.6,4.6,50,0.00,OVC,,0.00,WeatherDisplay:10.37,2013-04-17 13:59:00,
2013-04-17 07:04:00,40.0,22.8,30.06,SW,232,4.6,4.6,50,0.00,CLR,,0.00,WeatherDisplay:10.37,2013-04-17 14:04:00,
2013-04-17 07:09:00,40.5,22.8,30.06,SW,223,6.9,6.9,49,0.00,CLR,,0.00,WeatherDisplay:10.37,2013-04-17 14:09:00,
2013-04-17 07:14:00,40.8,23.1,30.06,SW,223,4.0,4.0,49,0.00,CLR,,0.00,WeatherDisplay:10.37,2013-04-17 14:14:00,
2013-04-17 07:19:00,41.3,23.1,30.06,SW,223,5.0,5.0,48,0.00,CLR,,0.00,WeatherDisplay:10.37,2013-04-17 14:19:00,
2013-04-17 07:24:00,42.1,23.3,30.07,SSW,197,7.0,7.0,47,0.00,CLR,,0.00,WeatherDisplay:10.37,2013-04-17 14:24:00,
2013-04-17 07:29:00,43.2,23.3,30.07,SSW,201,7.0,7.0,45,0.00,CLR,,0.00,WeatherDisplay:10.37,2013-04-17 14:29:00,
2013-04-17 07:35:00,43.7,23.2,30.07,SSW,211,3.5,3.5,44,0.00,CLR,,0.00,WeatherDisplay:10.37,2013-04-17 14:35:00,
2013-04-17 07:40:00,44.3,23.7,30.08,SSW,194,7.0,7.0,44,0.00,CLR,,0.00,WeatherDisplay:10.37,2013-04-17 14:40:00,
2013-04-17 07:45:00,45.2,24.0,30.08,South,174,5.8,5.8,43,0.00,CLR,,0.00,WeatherDisplay:10.37,2013-04-17 14:45:00,
2013-04-17 07:50:00,45.6,23.8,30.08,South,186,6.0,6.0,42,0.00,CLR,,0.00,WeatherDisplay:10.37,2013-04-17 14:50:00,
2013-04-17 07:56:00,46.1,23.7,30.08,South,187,5.0,5.0,41,0.00,CLR,,0.00,WeatherDisplay:10.37,2013-04-17 14:56:00,
2013-04-17 08:01:00,46.5,23.4,30.08,South,169,4.6,4.6,40,0.00,CLR,,0.00,WeatherDisplay:10.37,2013-04-17 15:01:00,
2013-04-17 08:06:00,46.9,23.8,30.08,ESE,119,4.0,4.0,40,0.00,CLR,,0.00,WeatherDisplay:10.37,2013-04-17 15:06:00,
2013-04-17 08:11:00,47.3,23.6,30.08,SSE,150,6.9,6.9,39,0.00,CLR,,0.00,WeatherDisplay:10.37,2013-04-17 15:11:00,
2013-04-17 08:16:00,47.5,23.7,30.08,SSE,155,3.5,3.5,39,0.00,CLR,,0.00,WeatherDisplay:10.37,2013-04-17 15:16:00,
2013-04-17 08:21:00,48.0,24.2,30.08,SSE,150,5.8,5.8,39,0.00,CLR,,0.00,WeatherDisplay:10.37,2013-04-17 15:21:00,
2013-04-17 08:26:00,48.2,24.4,30.08,SSE,150,6.9,6.9,39,0.00,CLR,,0.00,WeatherDisplay:10.37,2013-04-17 15:26:00,
2013-04-17 08:32:00,48.5,24.0,30.08,ESE,121,3.5,3.5,38,0.00,CLR,,0.00,WeatherDisplay:10.37,2013-04-17 15:32:00,
2013-04-17 08:37:00,49.2,24.6,30.08,NE,48,5.8,5.8,38,0.00,CLR,,0.00,WeatherDisplay:10.37,2013-04-17 15:37:00,
2013-04-17 08:42:00,49.9,24.6,30.08,ESE,109,4.0,4.0,37,0.00,CLR,,0.00,WeatherDisplay:10.37,2013-04-17 15:42:00,
2013-04-17 08:47:00,49.7,24.5,30.08,SE,126,5.8,5.8,37,0.00,CLR,,0.00,WeatherDisplay:10.37,2013-04-17 15:47:00,
2013-04-17 08:53:00,49.9,24.6,30.08,ENE,78,5.8,5.8,37,0.00,CLR,,0.00,WeatherDisplay:10.37,2013-04-17 15:53:00,
2013-04-17 08:58:00,50.2,24.2,30.08,ESE,123,9.2,9.2,36,0.00,CLR,,0.00,WeatherDisplay:10.37,2013-04-17 15:58:00,
2013-04-17 09:03:00,50.7,24.7,30.08,ENE,75,6.9,6.9,36,0.00,CLR,,0.00,WeatherDisplay:10.37,2013-04-17 16:03:00,
2013-04-17 09:08:00,51.2,24.5,30.08,NE,54,6.9,6.9,35,0.00,CLR,,0.00,WeatherDisplay:10.37,2013-04-17 16:08:00,
2013-04-17 09:13:00,51.6,24.8,30.08,ENE,66,3.0,6.0,35,0.00,CLR,,0.00,WeatherDisplay:10.37,2013-04-17 16:13:00,
2013-04-17 09:18:00,52.7,25.8,30.08,NE,47,5.0,7.0,35,0.00,CLR,,0.00,WeatherDisplay:10.37,2013-04-17 16:18:00,
2013-04-17 09:23:00,53.2,25.5,30.09,NE,41,2.0,6.0,34,0.00,CLR,,0.00,WeatherDisplay:10.37,2013-04-17 16:23:00,
2013-04-17 09:28:00,55.0,25.6,30.09,NNE,22,10.4,10.4,32,0.00,CLR,,0.00,WeatherDisplay:10.37,2013-04-17 16:28:00,
2013-04-17 09:33:00,54.8,24.7,30.09,NNE,20,6.9,6.9,31,0.00,CLR,,0.00,WeatherDisplay:10.37,2013-04-17 16:33:00,
2013-04-17 09:38:00,54.9,25.6,30.08,North,350,3.5,3.7,32,0.00,CLR,,0.00,WeatherDisplay:10.37,2013-04-17 16:38:00,
2013-04-17 09:43:00,55.7,24.7,30.09,NNE,15,10.4,10.4,30,0.00,CLR,,0.00,WeatherDisplay:10.37,2013-04-17 16:43:00,
2013-04-17 09:49:00,55.9,24.1,30.09,NE,56,12.7,12.7,29,0.00,CLR,,0.00,WeatherDisplay:10.37,2013-04-17 16:49:00,
2013-04-17 09:54:00,55.0,24.1,30.09,ENE,64,11.0,11.0,30,0.00,CLR,,0.00,WeatherDisplay:10.37,2013-04-17 16:54:00,
2013-04-17 09:59:00,54.6,24.5,30.09,NNE,32,10.4,10.4,31,0.00,CLR,,0.00,WeatherDisplay:10.37,2013-04-17 16:59:00,
2013-04-17 10:04:00,54.8,23.9,30.09,ENE,74,13.0,13.0,30,0.00,OVC,,0.00,WeatherDisplay:10.37,2013-04-17 17:04:00,
2013-04-17 10:09:00,53.9,23.9,30.09,ENE,71,12.0,12.0,31,0.00,OVC,,0.00,WeatherDisplay:10.37,2013-04-17 17:09:00,
2013-04-17 10:15:00,54.4,24.4,30.09,ENE,68,11.5,11.5,31,0.00,OVC,,0.00,WeatherDisplay:10.37,2013-04-17 17:15:00,
2013-04-17 10:20:00,55.0,23.3,30.09,NNE,33,11.5,11.5,29,0.00,OVC,,0.00,WeatherDisplay:10.37,2013-04-17 17:20:00,
2013-04-17 10:25:00,55.3,22.7,30.09,NE,53,9.2,9.2,28,0.00,OVC,,0.00,WeatherDisplay:10.37,2013-04-17 17:25:00,
2013-04-17 10:30:00,55.5,22.9,30.09,NNE,20,11.5,11.5,28,0.00,OVC,,0.00,WeatherDisplay:10.37,2013-04-17 17:30:00,
2013-04-17 10:36:00,56.2,21.7,30.09,NNE,28,17.3,17.3,26,0.00,OVC,,0.00,WeatherDisplay:10.37,2013-04-17 17:36:00,
2013-04-17 10:41:00,56.4,21.0,30.09,ENE,57,20.7,20.7,25,0.00,OVC,,0.00,WeatherDisplay:10.37,2013-04-17 17:41:00,
2013-04-17 10:46:00,56.9,21.4,30.09,ENE,61,11.5,11.5,25,0.00,OVC,,0.00,WeatherDisplay:10.37,2013-04-17 17:46:00,
2013-04-17 10:51:00,56.2,19.8,30.09,ENE,67,12.7,12.7,24,0.00,OVC,,0.00,WeatherDisplay:10.37,2013-04-17 17:51:00,
2013-04-17 10:57:00,56.4,19.0,30.09,NE,49,11.5,11.5,23,0.00,OVC,,0.00,WeatherDisplay:10.37,2013-04-17 17:57:00,
2013-04-17 11:02:00,57.1,19.6,30.09,NE,44,12.7,12.7,23,0.00,OVC,,0.00,WeatherDisplay:10.37,2013-04-17 18:02:00,
2013-04-17 11:07:00,56.9,21.4,30.09,East,88,5.8,5.8,25,0.00,OVC,,0.00,WeatherDisplay:10.37,2013-04-17 18:07:00,
2013-04-17 11:12:00,57.7,19.1,30.09,NE,39,11.5,11.5,22,0.00,OVC,,0.00,WeatherDisplay:10.37,2013-04-17 18:12:00,
2013-04-17 11:17:00,58.6,16.4,30.09,NE,52,6.0,6.0,19,0.00,OVC,,0.00,WeatherDisplay:10.37,2013-04-17 18:17:00,
2013-04-17 11:23:00,59.1,16.8,30.08,NE,42,3.5,3.5,19,0.00,OVC,,0.00,WeatherDisplay:10.37,2013-04-17 18:23:00,
2013-04-17 11:28:00,58.7,15.2,30.08,SE,129,6.0,6.0,18,0.00,OVC,,0.00,WeatherDisplay:10.37,2013-04-17 18:28:00,
2013-04-17 11:33:00,56.4,14.6,30.08,South,184,3.5,3.5,19,0.00,OVC,,0.00,WeatherDisplay:10.37,2013-04-17 18:33:00,
2013-04-17 11:38:00,56.8,14.9,30.08,SW,215,5.0,6.0,19,0.00,CLR,,0.00,WeatherDisplay:10.37,2013-04-17 18:38:00,
2013-04-17 11:43:00,58.4,16.2,30.08,NW,315,10.0,17.0,19,0.00,CLR,,0.00,WeatherDisplay:10.37,2013-04-17 18:43:00,
2013-04-17 11:48:00,57.2,15.2,30.08,NW,323,9.0,17.0,19,0.00,CLR,,0.00,WeatherDisplay:10.37,2013-04-17 18:48:00,
2013-04-17 11:53:00,57.7,15.7,30.08,NW,317,2.0,8.0,19,0.00,CLR,,0.00,WeatherDisplay:10.37,2013-04-17 18:53:00,
2013-04-17 11:58:00,58.1,16.0,30.07,WNW,302,7.0,9.0,19,0.00,CLR,,0.00,WeatherDisplay:10.37,2013-04-17 18:58:00,
2013-04-17 12:03:00,58.7,16.5,30.07,WNW,298,2.0,5.0,19,0.00,CLR,,0.00,WeatherDisplay:10.37,2013-04-17 19:03:00,
2013-04-17 12:08:00,59.7,18.5,30.07,WNW,291,1.0,5.0,20,0.00,CLR,,0.00,WeatherDisplay:10.37,2013-04-17 19:08:00,
2013-04-17 12:13:00,59.0,16.7,30.07,South,187,5.0,6.0,19,0.00,CLR,,0.00,WeatherDisplay:10.37,2013-04-17 19:13:00,
2013-04-17 12:18:00,58.6,17.6,30.07,SSE,161,5.0,7.0,20,0.00,CLR,,0.00,WeatherDisplay:10.37,2013-04-17 19:18:00,
2013-04-17 12:23:00,58.4,17.4,30.07,SSE,165,3.0,6.0,20,0.00,CLR,,0.00,WeatherDisplay:10.37,2013-04-17 19:23:00,
2013-04-17 12:28:00,58.4,17.4,30.06,ESE,123,5.0,8.0,20,0.00,CLR,,0.00,WeatherDisplay:10.37,2013-04-17 19:28:00,
2013-04-17 12:33:00,59.9,19.8,30.06,ENE,73,0.0,3.0,21,0.00,CLR,,0.00,WeatherDisplay:10.37,2013-04-17 19:33:00,
2013-04-17 12:38:00,62.3,19.5,30.06,North,1,2.0,6.0,19,0.00,CLR,,0.00,WeatherDisplay:10.37,2013-04-17 19:38:00,
2013-04-17 12:43:00,62.8,18.6,30.06,North,356,6.0,12.0,18,0.00,CLR,,0.00,WeatherDisplay:10.37,2013-04-17 19:43:00,
2013-04-17 12:48:00,62.7,18.5,30.06,North,350,5.0,9.0,18,0.00,CLR,,0.00,WeatherDisplay:10.37,2013-04-17 19:48:00,
2013-04-17 12:53:00,62.0,17.9,30.06,WNW,300,1.0,6.0,18,0.00,CLR,,0.00,WeatherDisplay:10.37,2013-04-17 19:53:00,
2013-04-17 12:58:00,60.6,16.8,30.06,SSW,193,5.0,10.0,18,0.00,CLR,,0.00,WeatherDisplay:10.37,2013-04-17 19:58:00,
2013-04-17 13:03:00,59.3,17.0,30.06,SE,129,10.0,15.0,19,0.00,CLR,,0.00,WeatherDisplay:10.37,2013-04-17 20:03:00,
2013-04-17 13:08:00,58.8,17.7,30.05,East,99,7.0,13.0,20,0.00,CLR,,0.00,WeatherDisplay:10.37,2013-04-17 20:08:00,
2013-04-17 13:13:00,59.5,18.4,30.06,ENE,62,5.0,15.0,20,0.00,CLR,,0.00,WeatherDisplay:10.37,2013-04-17 20:13:00,
2013-04-17 13:18:00,60.4,17.9,30.06,SSE,167,6.9,6.9,19,0.00,OVC,,0.00,WeatherDisplay:10.37,2013-04-17 20:18:00,
2013-04-17 13:24:00,59.9,17.5,30.05,SE,146,11.5,11.5,19,0.00,OVC,,0.00,WeatherDisplay:10.37,2013-04-17 20:24:00,
2013-04-17 13:29:00,59.6,17.2,30.05,South,173,10.4,10.4,19,0.00,OVC,,0.00,WeatherDisplay:10.37,2013-04-17 20:29:00,
2013-04-17 13:34:00,59.6,17.2,30.05,West,273,9.2,9.2,19,0.00,OVC,,0.00,WeatherDisplay:10.37,2013-04-17 20:34:00,
2013-04-17 13:39:00,60.5,18.0,30.05,SSE,155,12.7,12.7,19,0.00,OVC,,0.00,WeatherDisplay:10.37,2013-04-17 20:39:00,
2013-04-17 13:44:00,61.3,17.4,30.05,SW,224,10.4,10.4,18,0.00,OVC,,0.00,WeatherDisplay:10.37,2013-04-17 20:44:00,
2013-04-17 13:49:00,60.2,16.5,30.05,SW,225,9.2,9.2,18,0.00,OVC,,0.00,WeatherDisplay:10.37,2013-04-17 20:49:00,
2013-04-17 13:55:00,60.0,16.3,30.05,South,190,11.5,11.5,18,0.00,OVC,,0.00,WeatherDisplay:10.37,2013-04-17 20:55:00,
2013-04-17 14:00:00,61.0,17.1,30.05,SW,232,13.8,13.8,18,0.00,OVC,,0.00,WeatherDisplay:10.37,2013-04-17 21:00:00,
2013-04-17 14:05:00,60.4,17.9,30.05,ESE,121,10.4,10.4,19,0.00,OVC,,0.00,WeatherDisplay:10.37,2013-04-17 21:05:00,
2013-04-17 14:10:00,60.5,18.0,30.05,SE,146,6.0,6.0,19,0.00,OVC,,0.00,WeatherDisplay:10.37,2013-04-17 21:10:00,
2013-04-17 14:15:00,60.4,17.9,30.05,SSE,161,11.5,11.5,19,0.00,OVC,,0.00,WeatherDisplay:10.37,2013-04-17 21:15:00,
2013-04-17 14:21:00,61.2,18.6,30.05,SSE,154,2.3,2.3,19,0.00,OVC,,0.00,WeatherDisplay:10.37,2013-04-17 21:21:00,
2013-04-17 14:26:00,61.6,17.6,30.05,SE,133,11.5,11.5,18,0.00,OVC,,0.00,WeatherDisplay:10.37,2013-04-17 21:26:00,
2013-04-17 14:31:00,61.1,17.2,30.04,SSW,194,10.4,10.4,18,0.00,OVC,,0.00,WeatherDisplay:10.37,2013-04-17 21:31:00,
2013-04-17 14:37:00,62.0,18.0,30.04,SSE,150,6.9,6.9,18,0.00,CLR,,0.00,WeatherDisplay:10.37,2013-04-17 21:37:00,
2013-04-17 14:42:00,61.5,17.5,30.03,NE,35,16.1,16.1,18,0.00,OVC,,0.00,WeatherDisplay:10.37,2013-04-17 21:42:00,
2013-04-17 14:47:00,62.3,18.2,30.03,SE,138,11.5,11.5,18,0.00,OVC,,0.00,WeatherDisplay:10.37,2013-04-17 21:47:00,
2013-04-17 14:52:00,61.5,17.5,30.03,SE,146,13.8,13.8,18,0.00,OVC,,0.00,WeatherDisplay:10.37,2013-04-17 21:52:00,
2013-04-17 14:57:00,61.9,17.9,30.03,South,180,6.9,6.9,18,0.00,OVC,,0.00,WeatherDisplay:10.37,2013-04-17 21:57:00,
2013-04-17 15:02:00,63.0,18.8,30.03,ENE,71,9.2,9.2,18,0.00,OVC,,0.00,WeatherDisplay:10.37,2013-04-17 22:02:00,
2013-04-17 15:07:00,62.9,17.4,30.03,East,88,15.0,15.0,17,0.00,OVC,,0.00,WeatherDisplay:10.37,2013-04-17 22:07:00,
2013-04-17 15:12:00,62.8,18.6,30.03,ENE,74,8.0,8.0,18,0.00,OVC,,0.00,WeatherDisplay:10.37,2013-04-17 22:12:00,
2013-04-17 15:18:00,61.9,17.9,30.02,East,81,16.1,16.1,18,0.00,OVC,,0.00,WeatherDisplay:10.37,2013-04-17 22:18:00,
2013-04-17 15:23:00,62.7,18.5,30.02,SE,144,19.6,19.6,18,0.00,OVC,,0.00,WeatherDisplay:10.37,2013-04-17 22:23:00,
2013-04-17 15:28:00,62.7,18.5,30.02,ENE,74,11.5,11.5,18,0.00,OVC,,0.00,WeatherDisplay:10.37,2013-04-17 22:28:00,
2013-04-17 15:33:00,62.1,18.0,30.02,South,182,6.9,6.9,18,0.00,OVC,,0.00,WeatherDisplay:10.37,2013-04-17 22:33:00,
2013-04-17 15:38:00,62.9,18.7,30.02,WNW,303,4.6,4.6,18,0.00,OVC,,0.00,WeatherDisplay:10.37,2013-04-17 22:38:00,
2013-04-17 15:43:00,64.4,18.6,30.02,WNW,288,7.0,9.0,17,0.00,CLR,,0.00,WeatherDisplay:10.37,2013-04-17 22:43:00,
2013-04-17 15:48:00,65.7,19.6,30.02,North,355,13.0,13.0,17,0.00,OVC,,0.00,WeatherDisplay:10.37,2013-04-17 22:48:00,
2013-04-17 15:53:00,65.3,19.3,30.02,NW,311,10.4,10.4,17,0.00,OVC,,0.00,WeatherDisplay:10.37,2013-04-17 22:53:00,
2013-04-17 15:58:00,65.1,19.2,30.02,WNW,303,16.0,16.0,17,0.00,OVC,,0.00,WeatherDisplay:10.37,2013-04-17 22:58:00,
2013-04-17 16:03:00,63.6,19.3,30.02,NW,313,16.1,16.1,18,0.00,CLR,,0.00,WeatherDisplay:10.37,2013-04-17 23:03:00,
2013-04-17 16:09:00,63.5,19.2,30.02,WSW,238,11.5,11.5,18,0.00,CLR,,0.00,WeatherDisplay:10.37,2013-04-17 23:09:00,
2013-04-17 16:14:00,62.7,18.5,30.01,SSE,161,13.8,13.8,18,0.00,CLR,,0.00,WeatherDisplay:10.37,2013-04-17 23:14:00,
2013-04-17 16:19:00,63.7,19.3,30.01,NNE,17,13.0,13.0,18,0.00,CLR,,0.00,WeatherDisplay:10.37,2013-04-17 23:19:00,
2013-04-17 16:24:00,64.3,19.8,30.02,NNE,28,10.4,10.4,18,0.00,CLR,,0.00,WeatherDisplay:10.37,2013-04-17 23:24:00,
2013-04-17 16:29:00,64.3,19.8,30.01,West,279,5.8,5.8,18,0.00,CLR,,0.00,WeatherDisplay:10.37,2013-04-17 23:29:00,
2013-04-17 16:34:00,64.0,19.6,30.01,North,5,11.5,11.5,18,0.00,CLR,,0.00,WeatherDisplay:10.37,2013-04-17 23:34:00,
2013-04-17 16:39:00,64.1,19.7,30.01,NNE,24,13.0,13.0,18,0.00,CLR,,0.00,WeatherDisplay:10.37,2013-04-17 23:39:00,
2013-04-17 16:44:00,64.4,19.9,30.02,NW,326,18.4,18.4,18,0.00,CLR,,0.00,WeatherDisplay:10.37,2013-04-17 23:44:00,
2013-04-17 16:50:00,63.4,19.1,30.02,WNW,290,15.0,15.0,18,0.00,CLR,,0.00,WeatherDisplay:10.37,2013-04-17 23:50:00,
2013-04-17 16:55:00,63.4,20.4,30.02,WNW,294,16.0,16.0,19,0.00,CLR,,0.00,WeatherDisplay:10.37,2013-04-17 23:55:00,
2013-04-17 17:00:00,63.2,18.9,30.02,NNW,343,11.5,11.5,18,0.00,CLR,,0.00,WeatherDisplay:10.37,2013-04-18 00:00:00,
2013-04-17 17:05:00,63.5,19.2,30.02,WNW,298,13.8,13.8,18,0.00,OVC,,0.00,WeatherDisplay:10.37,2013-04-18 00:05:00,
2013-04-17 17:10:00,63.3,19.0,30.02,NW,307,16.1,16.1,18,0.00,OVC,,0.00,WeatherDisplay:10.37,2013-04-18 00:10:00,
2013-04-17 17:15:00,62.9,20.0,30.02,NNW,331,11.5,11.5,19,0.00,OVC,,0.00,WeatherDisplay:10.37,2013-04-18 00:15:00,
2013-04-17 17:20:00,63.1,20.1,30.02,NW,304,19.6,19.6,19,0.00,OVC,,0.00,WeatherDisplay:10.37,2013-04-18 00:20:00,
2013-04-17 17:25:00,62.9,20.0,30.02,NW,311,13.8,13.8,19,0.00,OVC,,0.00,WeatherDisplay:10.37,2013-04-18 00:25:00,
2013-04-17 17:30:00,62.9,21.2,30.02,WNW,291,20.7,20.7,20,0.00,OVC,,0.00,WeatherDisplay:10.37,2013-04-18 00:30:00,
2013-04-17 17:36:00,62.5,20.8,30.02,WNW,298,19.6,19.6,20,0.00,OVC,,0.00,WeatherDisplay:10.37,2013-04-18 00:36:00,
2013-04-17 17:41:00,62.6,20.9,30.02,WNW,296,19.6,19.6,20,0.00,OVC,,0.00,WeatherDisplay:10.37,2013-04-18 00:41:00,
2013-04-17 17:46:00,62.3,20.7,30.02,NW,310,15.0,15.0,20,0.00,OVC,,0.00,WeatherDisplay:10.37,2013-04-18 00:46:00,
2013-04-17 17:51:00,61.8,21.4,30.02,WNW,288,16.1,16.1,21,0.00,OVC,,0.00,WeatherDisplay:10.37,2013-04-18 00:51:00,
2013-04-17 17:56:00,62.1,20.5,30.02,WNW,296,19.6,19.6,20,0.00,OVC,,0.00,WeatherDisplay:10.37,2013-04-18 00:56:00,
2013-04-17 18:01:00,62.0,21.6,30.02,WNW,302,16.0,16.0,21,0.00,OVC,,0.00,WeatherDisplay:10.37,2013-04-18 01:01:00,
2013-04-17 18:07:00,61.6,21.2,30.02,WNW,300,17.3,17.3,21,0.00,OVC,,0.00,WeatherDisplay:10.37,2013-04-18 01:07:00,
2013-04-17 18:12:00,61.5,21.2,30.02,NW,306,20.7,20.7,21,0.00,OVC,,0.00,WeatherDisplay:10.37,2013-04-18 01:12:00,
2013-04-17 18:17:00,61.4,21.1,30.02,WNW,289,23.0,23.0,21,0.00,OVC,,0.00,WeatherDisplay:10.37,2013-04-18 01:17:00,
2013-04-17 18:22:00,61.3,22.1,30.03,WNW,287,20.0,20.0,22,0.00,OVC,,0.00,WeatherDisplay:10.37,2013-04-18 01:22:00,
2013-04-17 18:27:00,61.1,21.9,30.03,WNW,302,17.3,17.3,22,0.00,OVC,,0.00,WeatherDisplay:10.37,2013-04-18 01:27:00,
2013-04-17 18:33:00,60.8,21.7,30.03,WNW,295,20.0,20.0,22,0.00,OVC,,0.00,WeatherDisplay:10.37,2013-04-18 01:33:00,
2013-04-17 18:38:00,60.3,21.2,30.03,WNW,300,19.6,19.6,22,0.00,OVC,,0.00,WeatherDisplay:10.37,2013-04-18 01:38:00,
2013-04-17 18:43:00,60.2,21.2,30.03,WNW,296,19.6,19.6,22,0.00,OVC,,0.00,WeatherDisplay:10.37,2013-04-18 01:43:00,
2013-04-17 18:48:00,59.9,22.0,30.03,WNW,301,20.7,20.7,23,0.00,OVC,,0.00,WeatherDisplay:10.37,2013-04-18 01:48:00,
2013-04-17 18:53:00,59.7,21.8,30.03,WNW,289,17.3,17.3,23,0.00,OVC,,0.00,WeatherDisplay:10.37,2013-04-18 01:53:00,
2013-04-17 18:58:00,59.6,21.7,30.03,WNW,299,17.3,17.3,23,0.00,OVC,,0.00,WeatherDisplay:10.37,2013-04-18 01:58:00,
2013-04-17 19:03:00,59.3,22.5,30.03,WNW,294,13.0,18.0,24,0.00,CLR,,0.00,WeatherDisplay:10.37,2013-04-18 02:03:00,
2013-04-17 19:08:00,59.0,22.2,30.03,WNW,293,13.0,17.0,24,0.00,CLR,,0.00,WeatherDisplay:10.37,2013-04-18 02:08:00,
2013-04-17 19:13:00,58.7,22.0,30.03,WNW,295,13.0,18.0,24,0.00,CLR,,0.00,WeatherDisplay:10.37,2013-04-18 02:13:00,
2013-04-17 19:18:00,58.2,22.5,30.03,WNW,297,19.6,19.6,25,0.00,CLR,,0.00,WeatherDisplay:10.37,2013-04-18 02:18:00,
2013-04-17 19:23:00,57.8,23.1,30.03,WNW,293,14.0,22.0,26,0.00,CLR,,0.00,WeatherDisplay:10.37,2013-04-18 02:23:00,
2013-04-17 19:28:00,57.5,21.9,30.03,WNW,288,18.4,18.4,25,0.00,CLR,,0.00,WeatherDisplay:10.37,2013-04-18 02:28:00,
2013-04-17 19:33:00,57.3,22.7,30.03,WNW,295,14.0,20.0,26,0.00,CLR,,0.00,WeatherDisplay:10.37,2013-04-18 02:33:00,
2013-04-17 19:38:00,57.1,22.5,30.04,WNW,301,20.7,20.7,26,0.00,CLR,,0.00,WeatherDisplay:10.37,2013-04-18 02:38:00,
2013-04-17 19:43:00,56.8,22.2,30.04,WNW,292,17.0,17.0,26,0.00,CLR,,0.00,WeatherDisplay:10.37,2013-04-18 02:43:00,
2013-04-17 19:48:00,56.6,22.1,30.04,WNW,289,20.0,20.0,26,0.00,CLR,,0.00,WeatherDisplay:10.37,2013-04-18 02:48:00,
2013-04-17 19:54:00,56.5,22.0,30.04,WNW,298,19.6,19.6,26,0.00,CLR,,0.00,WeatherDisplay:10.37,2013-04-18 02:54:00,
2013-04-17 19:59:00,56.3,22.7,30.04,WNW,289,19.6,19.6,27,0.00,CLR,,0.00,WeatherDisplay:10.37,2013-04-18 02:59:00,
2013-04-17 20:04:00,56.4,22.8,30.04,WNW,293,21.0,21.0,27,0.00,CLR,,0.00,WeatherDisplay:10.37,2013-04-18 03:04:00,
2013-04-17 20:09:00,56.1,22.5,30.04,WNW,300,24.2,24.2,27,0.00,CLR,,0.00,WeatherDisplay:10.37,2013-04-18 03:09:00,
2013-04-17 20:14:00,56.0,22.4,30.04,WNW,288,20.7,20.7,27,0.00,CLR,,0.00,WeatherDisplay:10.37,2013-04-18 03:14:00,
2013-04-17 20:19:00,55.8,22.3,30.04,WNW,286,18.4,18.4,27,0.00,CLR,,0.00,WeatherDisplay:10.37,2013-04-18 03:19:00,
2013-04-17 20:24:00,55.7,22.2,30.05,WNW,292,19.6,19.6,27,0.00,CLR,,0.00,WeatherDisplay:10.37,2013-04-18 03:24:00,
2013-04-17 20:30:00,55.7,21.3,30.05,WNW,290,21.9,21.9,26,0.00,CLR,,0.00,WeatherDisplay:10.37,2013-04-18 03:30:00,
2013-04-17 20:35:00,55.7,22.2,30.06,WNW,292,17.3,17.3,27,0.00,CLR,,0.00,WeatherDisplay:10.37,2013-04-18 03:35:00,
2013-04-17 20:40:00,55.7,21.3,30.06,WNW,298,23.0,23.0,26,0.00,CLR,,0.00,WeatherDisplay:10.37,2013-04-18 03:40:00,
2013-04-17 20:45:00,55.8,21.4,30.06,NW,315,25.3,25.3,26,0.00,CLR,,0.00,WeatherDisplay:10.37,2013-04-18 03:45:00,
2013-04-17 20:51:00,55.6,22.1,30.06,WNW,299,22.0,22.0,27,0.00,CLR,,0.00,WeatherDisplay:10.37,2013-04-18 03:51:00,
2013-04-17 20:56:00,55.4,21.9,30.06,WNW,301,24.2,24.2,27,0.00,CLR,,0.00,WeatherDisplay:10.37,2013-04-18 03:56:00,
2013-04-17 21:01:00,55.5,21.1,30.07,WNW,301,20.7,20.7,26,0.00,CLR,,0.00,WeatherDisplay:10.37,2013-04-18 04:01:00,
2013-04-17 21:02:00,55.5,22.0,30.07,WNW,289,24.2,24.2,27,0.00,CLR,,0.00,WeatherDisplay:10.37,2013-04-18 04:02:00,
2013-04-17 21:04:00,55.3,21.0,30.07,WNW,292,21.9,21.9,26,0.00,CLR,,0.00,WeatherDisplay:10.37,2013-04-18 04:04:00,
2013-04-17 21:09:00,55.0,21.6,30.07,NW,305,21.9,21.9,27,0.00,CLR,,0.00,WeatherDisplay:10.37,2013-04-18 04:09:00,
2013-04-17 21:14:00,54.9,21.5,30.07,WNW,298,23.0,23.0,27,0.00,CLR,,0.00,WeatherDisplay:10.37,2013-04-18 04:14:00,
2013-04-17 21:20:00,54.9,21.5,30.07,WNW,301,22.0,22.0,27,0.00,CLR,,0.00,WeatherDisplay:10.37,2013-04-18 04:20:00,
2013-04-17 21:25:00,54.8,21.4,30.07,WNW,298,19.6,19.6,27,0.00,CLR,,0.00,WeatherDisplay:10.37,2013-04-18 04:25:00,
2013-04-17 21:30:00,54.8,21.4,30.07,NW,313,24.2,24.2,27,0.00,CLR,,0.00,WeatherDisplay:10.37,2013-04-18 04:30:00,
2013-04-17 21:35:00,54.9,20.6,30.08,WNW,294,24.0,24.0,26,0.00,CLR,,0.00,WeatherDisplay:10.37,2013-04-18 04:35:00,
2013-04-17 21:40:00,54.8,20.5,30.08,WNW,294,23.0,23.0,26,0.00,CLR,,0.00,WeatherDisplay:10.37,2013-04-18 04:40:00,
2013-04-17 21:45:00,54.7,21.3,30.08,WNW,294,23.0,23.0,27,0.00,CLR,,0.00,WeatherDisplay:10.37,2013-04-18 04:45:00,
2013-04-17 21:50:00,54.5,21.2,30.08,WNW,289,25.3,25.3,27,0.00,CLR,,0.00,WeatherDisplay:10.37,2013-04-18 04:50:00,
2013-04-17 21:55:00,54.5,21.2,30.08,WNW,294,24.0,24.0,27,0.00,CLR,,0.00,WeatherDisplay:10.37,2013-04-18 04:55:00,
2013-04-17 22:00:00,54.5,21.2,30.09,WNW,286,21.0,21.0,27,0.00,CLR,,0.00,WeatherDisplay:10.37,2013-04-18 05:00:00,
2013-04-17 22:06:00,54.4,21.1,30.09,WNW,297,19.6,19.6,27,0.00,CLR,,0.00,WeatherDisplay:10.37,2013-04-18 05:06:00,
2013-04-17 22:11:00,54.3,21.0,30.09,NW,308,21.9,21.9,27,0.00,CLR,,0.00,WeatherDisplay:10.37,2013-04-18 05:11:00,
2013-04-17 22:17:00,54.2,20.9,30.09,NW,304,21.9,21.9,27,0.00,CLR,,0.00,WeatherDisplay:10.37,2013-04-18 05:17:00,
2013-04-17 22:22:00,54.3,21.0,30.09,WNW,283,20.7,20.7,27,0.00,CLR,,0.00,WeatherDisplay:10.37,2013-04-18 05:22:00,
2013-04-17 22:27:00,54.5,21.2,30.09,WNW,298,20.0,20.0,27,0.00,CLR,,0.00,WeatherDisplay:10.37,2013-04-18 05:27:00,
2013-04-17 22:32:00,54.5,21.2,30.09,WNW,283,19.6,19.6,27,0.00,CLR,,0.00,WeatherDisplay:10.37,2013-04-18 05:32:00,
2013-04-17 22:37:00,54.2,20.9,30.09,WNW,292,21.0,21.0,27,0.00,CLR,,0.00,WeatherDisplay:10.37,2013-04-18 05:37:00,
2013-04-17 22:42:00,53.7,20.5,30.09,NW,319,21.9,21.9,27,0.00,CLR,,0.00,WeatherDisplay:10.37,2013-04-18 05:42:00,
2013-04-17 22:47:00,53.9,20.6,30.09,WNW,300,22.0,22.0,27,0.00,CLR,,0.00,WeatherDisplay:10.37,2013-04-18 05:47:00,
2013-04-17 22:52:00,53.9,20.6,30.09,WNW,295,20.7,20.7,27,0.00,CLR,,0.00,WeatherDisplay:10.37,2013-04-18 05:52:00,
2013-04-17 22:57:00,53.7,20.5,30.09,WNW,298,19.0,19.0,27,0.00,CLR,,0.00,WeatherDisplay:10.37,2013-04-18 05:57:00,
2013-04-17 23:02:00,54.0,20.7,30.10,WNW,297,22.0,22.0,27,0.00,CLR,,0.00,WeatherDisplay:10.37,2013-04-18 06:02:00,
2013-04-17 23:07:00,53.8,20.6,30.10,WNW,294,18.4,18.4,27,0.00,CLR,,0.00,WeatherDisplay:10.37,2013-04-18 06:07:00,
2013-04-17 23:12:00,53.6,20.4,30.10,WNW,295,18.4,18.4,27,0.00,CLR,,0.00,WeatherDisplay:10.37,2013-04-18 06:12:00,
2013-04-17 23:17:00,53.5,20.3,30.10,WNW,286,16.1,16.1,27,0.00,CLR,,0.00,WeatherDisplay:10.37,2013-04-18 06:17:00,
2013-04-17 23:22:00,53.5,21.2,30.10,WNW,298,16.1,16.1,28,0.00,CLR,,0.00,WeatherDisplay:10.37,2013-04-18 06:22:00,
2013-04-17 23:28:00,53.6,21.2,30.11,WNW,291,17.0,17.0,28,0.00,CLR,,0.00,WeatherDisplay:10.37,2013-04-18 06:28:00,
2013-04-17 23:33:00,53.7,20.5,30.11,WNW,288,19.6,19.6,27,0.00,CLR,,0.00,WeatherDisplay:10.37,2013-04-18 06:33:00,
2013-04-17 23:38:00,54.0,20.7,30.11,WNW,294,19.6,19.6,27,0.00,CLR,,0.00,WeatherDisplay:10.37,2013-04-18 06:38:00,
2013-04-17 23:43:00,54.0,20.7,30.12,NW,306,20.7,20.7,27,0.00,CLR,,0.00,WeatherDisplay:10.37,2013-04-18 06:43:00,
2013-04-17 23:48:00,54.1,20.8,30.12,WNW,292,14.0,20.0,27,0.00,CLR,,0.00,WeatherDisplay:10.37,2013-04-18 06:48:00,
2013-04-17 23:53:00,54.4,19.2,30.12,WNW,294,14.0,18.0,25,0.00,CLR,,0.00,WeatherDisplay:10.37,2013-04-18 06:53:00,
2013-04-17 23:58:00,54.4,19.3,30.12,WNW,295,13.0,17.0,25,0.00,CLR,,0.00,WeatherDisplay:10.37,2013-04-18 06:58:00,